Poling, Indiana
Current Conditions -  °F | °C
As of 7:55 PM on Wednesday 17 Dec 2014 (Local Time) from KVES Reporting Station
Overcast Overcast  
Wind Chill: -9°   Ceiling: 1000
Heat Index: -3°   Visibility: 10mi
Dew Point: -4°   Wind: 12mph
Humidity: 93%   Direction: 280°W
Pressure: 30.23"   Gusts: 17mph
Location:  40.5419°N, 84.8968°W
Report Text: KVES 180055Z AUTO 28010G15KT 10SM OVC010 M03/M04 A3023 RMK AO2
Loading
Personal Weather Stations






























Interactive Weather Map New forecast layout! Learn more

10-Day Weather Forecast

Advertisements
Track Severe Weather on mobile